createdAt,value
2019-03-30T00:00:18.727Z,90.40
2019-03-30T00:02:47.788Z,90.40
2019-03-30T00:05:16.835Z,90.40
2019-03-30T00:07:45.898Z,90.40
2019-03-30T00:10:14.949Z,90.50
2019-03-30T00:12:44.010Z,90.50
2019-03-30T00:15:13.139Z,90.60
2019-03-30T00:17:42.215Z,90.60
2019-03-30T00:20:11.247Z,90.70
2019-03-30T00:22:40.318Z,90.70
2019-03-30T00:25:09.359Z,90.70
2019-03-30T00:27:38.407Z,90.80
2019-03-30T00:30:07.421Z,90.70
2019-03-30T00:32:36.497Z,90.80
2019-03-30T00:35:06.923Z,90.90
2019-03-30T00:37:35.414Z,90.90
2019-03-30T00:40:06.515Z,90.90
2019-03-30T00:42:34.992Z,91.00
2019-03-30T00:45:04.689Z,91.20
2019-03-30T00:47:33.167Z,91.00
2019-03-30T00:50:02.211Z,91.00
2019-03-30T00:52:31.279Z,91.00
2019-03-30T00:54:59.738Z,91.10
2019-03-30T00:57:28.228Z,91.10
2019-03-30T00:59:56.694Z,91.10
2019-03-30T01:02:25.189Z,91.10
2019-03-30T01:04:54.247Z,91.10
2019-03-30T01:07:23.320Z,91.10
2019-03-30T01:09:52.369Z,91.10
2019-03-30T01:12:20.840Z,91.10
2019-03-30T01:14:49.895Z,91.10
2019-03-30T01:17:18.434Z,91.10
2019-03-30T01:19:47.498Z,91.20
2019-03-30T01:22:16.549Z,91.20
2019-03-30T01:24:45.031Z,91.20
2019-03-30T01:27:14.087Z,91.30
2019-03-30T01:29:43.159Z,91.40
2019-03-30T01:32:11.637Z,91.40
2019-03-30T01:34:40.124Z,91.40
2019-03-30T01:37:09.184Z,91.40
2019-03-30T01:39:38.256Z,91.50
2019-03-30T01:42:06.727Z,91.50
2019-03-30T01:44:35.795Z,91.60
2019-03-30T01:47:04.844Z,91.60
2019-03-30T01:49:33.910Z,91.60
2019-03-30T01:52:02.964Z,91.80
2019-03-30T01:54:32.042Z,91.70
2019-03-30T01:57:00.500Z,91.80
2019-03-30T01:59:29.568Z,91.70
2019-03-30T02:01:58.618Z,91.80
2019-03-30T02:04:27.669Z,91.80
2019-03-30T02:06:56.136Z,91.80
2019-03-30T02:09:24.610Z,91.90
2019-03-30T02:11:53.088Z,91.90
2019-03-30T02:14:21.555Z,92.10
2019-03-30T02:16:50.582Z,92.10
2019-03-30T02:19:19.404Z,92.00
2019-03-30T02:21:48.450Z,92.10
2019-03-30T02:24:17.506Z,92.30
2019-03-30T02:26:45.979Z,92.10
2019-03-30T02:29:15.028Z,92.20
2019-03-30T02:31:44.089Z,92.20
2019-03-30T02:34:12.594Z,92.20
2019-03-30T02:36:41.058Z,92.20
2019-03-30T02:39:09.723Z,92.20
2019-03-30T02:41:38.190Z,92.20
2019-03-30T02:44:06.724Z,92.20
2019-03-30T02:46:35.219Z,92.30
2019-03-30T02:49:03.670Z,92.30
2019-03-30T02:51:32.151Z,92.70
2019-03-30T02:54:00.621Z,92.40
2019-03-30T02:56:29.110Z,92.30
2019-03-30T02:58:57.565Z,92.30
2019-03-30T03:01:26.045Z,92.40
2019-03-30T03:03:54.580Z,92.40
2019-03-30T03:06:23.129Z,92.40
2019-03-30T03:08:52.197Z,92.50
2019-03-30T03:11:21.270Z,92.50
2019-03-30T03:13:49.743Z,92.40
2019-03-30T03:16:18.287Z,92.40
2019-03-30T03:18:46.757Z,92.40
2019-03-30T03:21:15.252Z,92.50
2019-03-30T03:23:43.794Z,92.50
2019-03-30T03:26:12.274Z,92.50
2019-03-30T03:28:41.340Z,92.50
2019-03-30T03:31:09.896Z,92.20
2019-03-30T03:33:38.357Z,92.50
2019-03-30T03:36:06.842Z,92.60
2019-03-30T03:38:35.317Z,92.60
2019-03-30T03:41:04.386Z,92.60
2019-03-30T03:43:32.852Z,92.60
2019-03-30T03:46:01.340Z,92.70
2019-03-30T03:48:29.805Z,92.70
2019-03-30T03:51:01.359Z,92.80
2019-03-30T03:53:31.049Z,92.70
2019-03-30T03:56:01.689Z,92.70
2019-03-30T03:58:33.419Z,92.70
2019-03-30T04:01:02.765Z,92.80
2019-03-30T04:03:34.932Z,92.70
2019-03-30T04:06:06.053Z,92.80
2019-03-30T04:08:35.620Z,92.80
2019-03-30T04:11:04.625Z,92.80
2019-03-30T04:13:33.243Z,92.80
2019-03-30T04:16:01.713Z,92.90
2019-03-30T04:18:30.270Z,92.90
2019-03-30T04:20:59.327Z,93.20
2019-03-30T04:23:27.840Z,92.90
2019-03-30T04:25:56.313Z,93.00
2019-03-30T04:28:24.781Z,93.00
2019-03-30T04:30:53.255Z,93.10
2019-03-30T04:33:21.723Z,93.10
2019-03-30T04:35:50.188Z,93.10
2019-03-30T04:38:19.255Z,93.10
2019-03-30T04:40:47.729Z,93.10
2019-03-30T04:43:16.241Z,93.10
2019-03-30T04:45:44.755Z,93.10
2019-03-30T04:48:13.229Z,93.20
2019-03-30T04:50:41.687Z,93.20
2019-03-30T04:53:10.172Z,93.20
2019-03-30T04:55:38.705Z,93.20
2019-03-30T04:58:09.192Z,93.30
2019-03-30T05:00:37.390Z,93.30
2019-03-30T05:03:05.939Z,93.40
2019-03-30T05:05:34.405Z,93.40
2019-03-30T05:08:03.463Z,93.40
2019-03-30T05:10:31.934Z,93.30
2019-03-30T05:13:00.428Z,93.30
2019-03-30T05:15:28.897Z,93.30
2019-03-30T05:17:57.390Z,93.20
2019-03-30T05:20:25.848Z,93.20
2019-03-30T05:22:54.384Z,93.20
2019-03-30T05:25:22.864Z,93.20
2019-03-30T05:27:51.530Z,93.10
2019-03-30T05:30:20.002Z,93.10
2019-03-30T05:32:49.066Z,93.00
2019-03-30T05:35:17.557Z,93.00
2019-03-30T05:37:46.140Z,93.00
2019-03-30T05:40:14.679Z,93.00
2019-03-30T05:42:43.734Z,92.90
2019-03-30T05:45:12.648Z,92.80
2019-03-30T05:47:41.130Z,92.80
2019-03-30T05:50:10.668Z,92.70
2019-03-30T05:52:39.775Z,92.70
2019-03-30T05:55:08.998Z,92.70
2019-03-30T05:57:38.044Z,92.60
2019-03-30T06:00:08.341Z,92.60
2019-03-30T06:02:36.806Z,92.60
2019-03-30T06:05:06.007Z,92.50
2019-03-30T06:07:34.522Z,92.50
2019-03-30T06:10:05.170Z,92.50
2019-03-30T06:12:33.646Z,92.50
2019-03-30T06:15:02.155Z,92.40
2019-03-30T06:17:30.611Z,92.40
2019-03-30T06:19:59.074Z,92.40
2019-03-30T06:22:39.699Z,92.30
2019-03-30T06:24:58.921Z,92.30
2019-03-30T06:27:27.980Z,92.00
2019-03-30T06:30:14.983Z,92.20
2019-03-30T06:32:45.472Z,92.20
2019-03-30T06:35:14.597Z,92.10
2019-03-30T06:37:43.663Z,92.00
2019-03-30T06:40:12.953Z,92.40
2019-03-30T06:42:42.086Z,91.90
2019-03-30T06:45:11.207Z,91.80
2019-03-30T06:47:40.337Z,91.70
2019-03-30T06:50:09.827Z,91.60
2019-03-30T06:52:42.704Z,91.40
2019-03-30T06:55:10.108Z,91.30
2019-03-30T06:57:39.465Z,91.20
2019-03-30T07:00:08.918Z,91.20
2019-03-30T07:02:38.134Z,91.10
2019-03-30T07:05:08.625Z,91.00
2019-03-30T07:07:38.725Z,90.90
2019-03-30T07:10:08.509Z,90.90
2019-03-30T07:12:41.221Z,90.80
2019-03-30T07:15:10.732Z,90.70
2019-03-30T07:17:47.041Z,90.60
2019-03-30T07:20:29.915Z,90.60
2019-03-30T07:23:11.159Z,90.40
2019-03-30T07:25:30.136Z,90.30
2019-03-30T07:27:59.187Z,90.30
2019-03-30T07:30:28.262Z,90.20
2019-03-30T07:32:57.328Z,90.40
2019-03-30T07:35:26.371Z,89.80
2019-03-30T07:37:55.443Z,89.50
2019-03-30T07:40:24.577Z,89.20
2019-03-30T07:42:53.648Z,88.90
2019-03-30T07:45:22.690Z,88.70
2019-03-30T07:47:51.754Z,88.30
2019-03-30T07:50:21.042Z,88.10
2019-03-30T07:52:50.098Z,87.90
2019-03-30T07:55:19.147Z,87.50
2019-03-30T07:57:48.224Z,87.20
2019-03-30T08:00:17.918Z,87.00
2019-03-30T08:02:46.977Z,86.80
2019-03-30T08:05:16.308Z,86.60
2019-03-30T08:07:45.379Z,86.50
2019-03-30T08:10:14.967Z,86.40
2019-03-30T08:12:44.058Z,86.20
2019-03-30T08:15:13.749Z,85.90
2019-03-30T08:17:42.802Z,85.40
2019-03-30T08:20:12.297Z,85.20
2019-03-30T08:22:41.365Z,85.00
2019-03-30T08:25:10.761Z,84.60
2019-03-30T08:27:39.825Z,84.30
2019-03-30T08:30:09.546Z,84.00
2019-03-30T08:32:38.662Z,83.60
2019-03-30T08:35:08.365Z,83.50
2019-03-30T08:37:37.438Z,83.10
2019-03-30T08:40:06.719Z,82.50
2019-03-30T08:42:35.773Z,82.10
2019-03-30T08:45:06.995Z,81.80
2019-03-30T08:47:36.043Z,81.60
2019-03-30T08:50:08.907Z,81.40
2019-03-30T08:52:37.964Z,80.70
2019-03-30T08:55:08.265Z,80.40
2019-03-30T08:57:37.339Z,80.10
2019-03-30T09:00:07.157Z,79.70
2019-03-30T09:02:36.211Z,79.10
2019-03-30T09:05:07.428Z,79.00
2019-03-30T09:07:36.519Z,78.50
2019-03-30T09:10:09.129Z,78.30
2019-03-30T09:12:38.232Z,78.00
2019-03-30T09:15:07.939Z,77.60
2019-03-30T09:17:37.482Z,77.60
2019-03-30T09:20:07.994Z,77.10
2019-03-30T09:22:37.052Z,77.00
2019-03-30T09:25:06.597Z,76.90
2019-03-30T09:27:35.725Z,77.00
2019-03-30T09:30:07.900Z,76.80
2019-03-30T09:32:37.121Z,76.40
2019-03-30T09:35:08.252Z,75.80
2019-03-30T09:37:37.298Z,75.70
2019-03-30T09:40:08.707Z,75.30
2019-03-30T09:42:37.765Z,74.40
2019-03-30T09:45:07.879Z,74.60
2019-03-30T09:47:36.944Z,74.50
2019-03-30T09:50:08.821Z,74.40
2019-03-30T09:52:37.972Z,74.10
2019-03-30T09:55:08.100Z,73.20
2019-03-30T09:57:37.244Z,72.90
2019-03-30T10:00:08.077Z,72.40
2019-03-30T10:02:37.263Z,72.40
2019-03-30T10:05:06.884Z,72.30
2019-03-30T10:07:36.056Z,71.80
2019-03-30T10:10:06.843Z,72.40
2019-03-30T10:12:35.918Z,71.40
2019-03-30T10:15:07.355Z,71.40
2019-03-30T10:17:36.405Z,70.70
2019-03-30T10:20:09.492Z,70.30
2019-03-30T10:22:42.039Z,70.40
2019-03-30T10:25:09.699Z,68.70
2019-03-30T10:27:38.769Z,69.00
2019-03-30T10:30:09.648Z,68.40
2019-03-30T10:32:38.727Z,68.30
2019-03-30T10:35:07.930Z,67.10
2019-03-30T10:37:36.992Z,66.00
2019-03-30T10:40:07.677Z,66.10
2019-03-30T10:42:36.821Z,65.50
2019-03-30T10:45:08.374Z,65.40
2019-03-30T10:47:37.505Z,63.00
2019-03-30T10:50:09.463Z,63.60
2019-03-30T10:52:38.562Z,64.30
2019-03-30T10:55:07.853Z,64.00
2019-03-30T10:57:36.935Z,62.30
2019-03-30T11:00:08.763Z,61.40
2019-03-30T11:02:38.981Z,61.80
2019-03-30T11:05:08.230Z,62.80
2019-03-30T11:07:37.300Z,63.50
2019-03-30T11:10:07.489Z,63.90
2019-03-30T11:12:36.571Z,63.70
2019-03-30T11:15:06.855Z,63.30
2019-03-30T11:17:35.929Z,62.80
2019-03-30T11:20:05.434Z,62.60
2019-03-30T11:22:34.578Z,62.50
2019-03-30T11:25:07.751Z,62.50
2019-03-30T11:27:35.244Z,62.60
2019-03-30T11:30:06.131Z,60.40
2019-03-30T11:32:35.189Z,59.30
2019-03-30T11:35:05.383Z,59.10
2019-03-30T11:37:34.476Z,59.30
2019-03-30T11:40:05.766Z,56.60
2019-03-30T11:42:34.881Z,56.70
2019-03-30T11:45:05.025Z,57.80
2019-03-30T11:47:34.108Z,57.50
2019-03-30T11:50:03.900Z,57.10
2019-03-30T11:52:33.051Z,56.40
2019-03-30T11:55:02.122Z,56.50
2019-03-30T11:57:31.198Z,56.50
2019-03-30T12:00:00.374Z,56.50
2019-03-30T12:02:29.595Z,56.90
2019-03-30T12:04:58.652Z,57.10
2019-03-30T12:07:27.730Z,57.10
2019-03-30T12:09:56.803Z,57.20
2019-03-30T12:12:25.882Z,57.00
2019-03-30T12:14:54.933Z,57.00
2019-03-30T12:17:24.006Z,57.30
2019-03-30T12:19:53.044Z,57.40
2019-03-30T12:22:22.128Z,56.50
2019-03-30T12:24:51.181Z,54.90
2019-03-30T12:27:20.250Z,54.70
2019-03-30T12:29:49.316Z,55.00
2019-03-30T12:32:18.386Z,55.70
2019-03-30T12:34:47.454Z,55.60
2019-03-30T12:37:16.529Z,55.40
2019-03-30T12:39:45.595Z,54.90
2019-03-30T12:42:14.782Z,54.60
2019-03-30T12:44:43.885Z,54.20
2019-03-30T12:47:12.928Z,55.00
2019-03-30T12:49:45.090Z,55.30
2019-03-30T12:52:12.923Z,55.30
2019-03-30T12:54:41.999Z,54.60
2019-03-30T12:57:11.072Z,55.00
2019-03-30T12:59:40.119Z,54.90
2019-03-30T13:02:09.197Z,54.70
2019-03-30T13:04:38.285Z,55.20
2019-03-30T13:07:07.348Z,55.20
2019-03-30T13:09:36.458Z,54.50
2019-03-30T13:12:05.696Z,54.30
2019-03-30T13:14:34.770Z,54.20
2019-03-30T13:17:03.826Z,54.40
2019-03-30T13:19:32.887Z,54.00
2019-03-30T13:22:01.934Z,53.50
2019-03-30T13:24:31.023Z,53.20
2019-03-30T13:27:00.088Z,53.30
2019-03-30T13:29:29.141Z,53.00
2019-03-30T13:31:58.224Z,52.90
2019-03-30T13:34:27.302Z,52.50
2019-03-30T13:36:56.366Z,51.80
2019-03-30T13:39:25.455Z,51.20
2019-03-30T13:41:54.509Z,51.60
2019-03-30T13:44:23.614Z,51.40
2019-03-30T13:46:52.686Z,51.50
2019-03-30T13:49:21.754Z,51.00
2019-03-30T13:51:50.817Z,51.20
2019-03-30T13:54:19.872Z,50.70
2019-03-30T13:56:48.951Z,50.90
2019-03-30T13:59:18.021Z,50.40
2019-03-30T14:01:47.111Z,48.00
2019-03-30T14:04:16.174Z,47.60
2019-03-30T14:06:45.270Z,47.30
2019-03-30T14:09:14.325Z,47.10
2019-03-30T14:11:43.409Z,48.30
2019-03-30T14:14:12.468Z,48.50
2019-03-30T14:16:41.689Z,48.70
2019-03-30T14:19:10.743Z,49.00
2019-03-30T14:21:39.914Z,48.10
2019-03-30T14:24:09.079Z,47.00
2019-03-30T14:26:38.207Z,48.20
2019-03-30T14:29:07.274Z,47.80
2019-03-30T14:31:36.335Z,47.80
2019-03-30T14:34:05.417Z,47.40
2019-03-30T14:36:34.495Z,47.50
2019-03-30T14:39:04.610Z,47.20
2019-03-30T14:41:33.364Z,46.40
2019-03-30T14:44:02.157Z,45.60
2019-03-30T14:46:30.987Z,45.10
2019-03-30T14:48:59.763Z,44.40
2019-03-30T14:51:28.524Z,43.00
2019-03-30T14:53:57.285Z,42.70
2019-03-30T14:56:26.050Z,42.80
2019-03-30T14:58:54.816Z,42.40
2019-03-30T15:01:25.041Z,41.80
2019-03-30T15:03:53.896Z,41.10
2019-03-30T15:06:22.664Z,41.40
2019-03-30T15:08:51.434Z,39.80
2019-03-30T15:11:20.194Z,40.90
2019-03-30T15:13:48.962Z,40.90
2019-03-30T15:16:17.716Z,40.00
2019-03-30T15:18:46.546Z,39.50
2019-03-30T15:21:15.294Z,39.70
2019-03-30T15:23:44.073Z,39.50
2019-03-30T15:26:12.846Z,39.30
2019-03-30T15:28:42.940Z,39.00
2019-03-30T15:31:11.854Z,39.30
2019-03-30T15:33:40.627Z,39.80
2019-03-30T15:36:09.388Z,40.00
2019-03-30T15:38:38.174Z,40.00
2019-03-30T15:41:06.916Z,39.70
2019-03-30T15:43:38.657Z,39.00
2019-03-30T15:46:06.281Z,39.20
2019-03-30T15:48:35.095Z,39.40
2019-03-30T15:51:03.859Z,39.00
2019-03-30T15:53:32.702Z,39.10
2019-03-30T15:56:01.561Z,39.90
2019-03-30T15:58:30.355Z,39.80
2019-03-30T16:00:59.101Z,39.90
2019-03-30T16:03:27.902Z,40.00
2019-03-30T16:05:56.672Z,39.90
2019-03-30T16:08:25.435Z,40.20
2019-03-30T16:10:54.203Z,39.90
2019-03-30T16:13:23.063Z,40.00
2019-03-30T16:15:51.819Z,40.20
2019-03-30T16:18:20.600Z,40.30
2019-03-30T16:20:49.437Z,41.30
2019-03-30T16:23:18.217Z,41.40
2019-03-30T16:25:46.983Z,42.10
2019-03-30T16:28:15.751Z,42.30
2019-03-30T16:30:44.511Z,42.80
2019-03-30T16:33:13.612Z,43.20
2019-03-30T16:35:42.723Z,42.90
2019-03-30T16:38:11.821Z,43.50
2019-03-30T16:40:40.645Z,43.70
2019-03-30T16:43:09.704Z,44.00
2019-03-30T16:45:38.852Z,44.00
2019-03-30T16:48:08.064Z,44.50
2019-03-30T16:50:37.131Z,44.80
2019-03-30T16:53:06.268Z,45.30
2019-03-30T16:55:35.566Z,45.40
2019-03-30T16:58:04.781Z,45.90
2019-03-30T17:00:33.923Z,46.20
2019-03-30T17:03:03.891Z,46.50
2019-03-30T17:05:32.998Z,46.50
2019-03-30T17:08:02.078Z,46.70
2019-03-30T17:10:31.129Z,47.00
2019-03-30T17:13:00.231Z,47.30
2019-03-30T17:15:29.277Z,47.70
2019-03-30T17:17:58.357Z,47.90
2019-03-30T17:20:27.424Z,48.30
2019-03-30T17:22:58.805Z,48.60
2019-03-30T17:25:27.365Z,49.00
2019-03-30T17:27:58.584Z,49.30
2019-03-30T17:30:27.292Z,49.70
2019-03-30T17:32:56.358Z,50.00
2019-03-30T17:35:25.410Z,50.30
2019-03-30T17:37:54.471Z,50.60
2019-03-30T17:40:23.684Z,51.00
2019-03-30T17:42:52.750Z,51.20
2019-03-30T17:45:22.058Z,51.50
2019-03-30T17:47:51.105Z,51.70
2019-03-30T17:50:20.440Z,52.00
2019-03-30T17:52:49.503Z,52.10
2019-03-30T17:55:32.780Z,52.40
2019-03-30T17:57:49.359Z,52.60
2019-03-30T18:00:19.939Z,53.00
2019-03-30T18:02:49.002Z,53.30
2019-03-30T18:05:18.075Z,53.50
2019-03-30T18:07:48.944Z,54.30
2019-03-30T18:10:18.341Z,54.00
2019-03-30T18:12:47.389Z,54.30
2019-03-30T18:15:16.705Z,54.50
2019-03-30T18:17:45.759Z,54.60
2019-03-30T18:20:16.155Z,54.80
2019-03-30T18:22:45.225Z,54.80
2019-03-30T18:25:14.643Z,55.20
2019-03-30T18:27:43.691Z,55.30
2019-03-30T18:30:13.907Z,55.50
2019-03-30T18:32:43.398Z,55.80
2019-03-30T18:35:12.557Z,56.10
2019-03-30T18:37:41.827Z,56.40
2019-03-30T18:40:14.202Z,56.70
2019-03-30T18:42:43.398Z,57.00
2019-03-30T18:45:15.552Z,57.30
2019-03-30T18:47:44.621Z,57.50
2019-03-30T18:50:13.712Z,57.70
2019-03-30T18:52:43.600Z,58.00
2019-03-30T18:55:15.746Z,58.30
2019-03-30T18:57:44.796Z,58.50
2019-03-30T19:00:16.508Z,58.60
2019-03-30T19:02:45.564Z,58.90
2019-03-30T19:05:14.634Z,59.20
2019-03-30T19:07:43.702Z,59.30
2019-03-30T19:10:12.958Z,59.50
2019-03-30T19:12:42.014Z,59.40
2019-03-30T19:15:11.233Z,59.60
2019-03-30T19:17:40.288Z,59.70
2019-03-30T19:20:09.378Z,59.90
2019-03-30T19:22:38.446Z,60.20
2019-03-30T19:25:08.223Z,60.60
2019-03-30T19:27:37.266Z,60.90
2019-03-30T19:30:10.508Z,61.30
2019-03-30T19:32:39.572Z,61.60
2019-03-30T19:35:09.085Z,61.90
2019-03-30T19:37:38.141Z,62.00
2019-03-30T19:40:07.968Z,62.20
2019-03-30T19:42:37.021Z,62.20
2019-03-30T19:45:07.723Z,62.30
2019-03-30T19:47:36.856Z,62.50
2019-03-30T19:50:06.775Z,62.70
2019-03-30T19:52:40.001Z,62.90
2019-03-30T19:55:07.189Z,63.10
2019-03-30T19:57:36.249Z,63.40
2019-03-30T20:00:08.628Z,63.70
2019-03-30T20:02:37.699Z,64.00
2019-03-30T20:05:07.577Z,64.50
2019-03-30T20:07:36.625Z,64.90
2019-03-30T20:10:06.429Z,65.20
2019-03-30T20:12:35.661Z,65.50
2019-03-30T20:15:07.073Z,66.70
2019-03-30T20:17:36.140Z,66.20
2019-03-30T20:20:06.072Z,66.40
2019-03-30T20:22:35.136Z,66.70
2019-03-30T20:25:06.953Z,66.90
2019-03-30T20:27:36.093Z,67.10
2019-03-30T20:30:09.673Z,67.30
2019-03-30T20:32:38.741Z,67.60
2019-03-30T20:35:08.789Z,68.00
2019-03-30T20:37:37.938Z,68.00
2019-03-30T20:40:08.253Z,68.30
2019-03-30T20:42:37.335Z,68.40
2019-03-30T20:45:07.560Z,68.50
2019-03-30T20:47:36.635Z,69.30
2019-03-30T20:50:07.211Z,68.50
2019-03-30T20:52:36.352Z,68.50
2019-03-30T20:55:06.572Z,68.60
2019-03-30T20:57:35.633Z,68.50
2019-03-30T21:00:08.011Z,68.50
2019-03-30T21:02:37.069Z,68.50
2019-03-30T21:05:07.060Z,68.50
2019-03-30T21:10:08.051Z,68.40
2019-03-30T21:12:37.145Z,68.50
2019-03-30T21:15:07.676Z,68.50
2019-03-30T21:17:36.736Z,67.90
2019-03-30T21:20:08.548Z,68.50
2019-03-30T21:22:37.627Z,68.40
2019-03-30T21:25:06.930Z,68.40
2019-03-30T21:27:35.988Z,68.30
2019-03-30T21:30:07.964Z,68.30
2019-03-30T21:32:37.191Z,68.30
2019-03-30T21:35:07.896Z,68.40
2019-03-30T21:37:36.958Z,68.40
2019-03-30T21:40:07.748Z,68.30
2019-03-30T21:42:36.806Z,68.30
2019-03-30T21:45:07.720Z,68.10
2019-03-30T21:47:37.022Z,67.90
2019-03-30T21:50:08.042Z,68.50
2019-03-30T21:52:37.358Z,67.60
2019-03-30T21:55:06.915Z,67.50
2019-03-30T21:57:35.962Z,67.50
2019-03-30T22:00:10.363Z,67.30
2019-03-30T22:02:37.352Z,67.40
2019-03-30T22:05:06.955Z,67.40
2019-03-30T22:07:36.879Z,67.50
2019-03-30T22:10:11.215Z,67.40
2019-03-30T22:12:41.895Z,67.30
2019-03-30T22:15:11.166Z,67.40
2019-03-30T22:17:40.305Z,67.50
2019-03-30T22:20:10.024Z,67.50
2019-03-30T22:22:39.173Z,67.60
2019-03-30T22:25:08.575Z,67.50
2019-03-30T22:27:37.641Z,67.50
2019-03-30T22:30:07.542Z,67.50
2019-03-30T22:32:36.615Z,67.40
2019-03-30T22:35:05.943Z,67.50
2019-03-30T22:37:34.999Z,67.60
2019-03-30T22:40:04.944Z,67.60
2019-03-30T22:42:34.146Z,67.60
2019-03-30T22:45:04.737Z,67.70
2019-03-30T22:47:33.826Z,67.80
2019-03-30T22:50:03.259Z,68.00
2019-03-30T22:52:32.345Z,68.10
2019-03-30T22:55:01.415Z,68.20
2019-03-30T22:57:30.561Z,68.30
2019-03-30T23:00:00.269Z,68.50
2019-03-30T23:02:29.554Z,68.50
2019-03-30T23:04:58.616Z,68.60
2019-03-30T23:07:27.766Z,69.50
2019-03-30T23:09:56.860Z,68.80
2019-03-30T23:12:25.909Z,68.80
2019-03-30T23:14:54.980Z,69.10
2019-03-30T23:17:24.051Z,69.20
2019-03-30T23:19:53.132Z,69.40
2019-03-30T23:22:22.176Z,69.60
2019-03-30T23:24:51.284Z,69.90
2019-03-30T23:27:20.346Z,69.80
2019-03-30T23:29:49.420Z,69.80
2019-03-30T23:32:18.482Z,69.90
2019-03-30T23:34:47.552Z,70.90
2019-03-30T23:37:16.618Z,70.50
2019-03-30T23:39:45.783Z,70.20
2019-03-30T23:42:14.850Z,70.30
2019-03-30T23:44:43.926Z,70.60
2019-03-30T23:47:12.994Z,70.80
2019-03-30T23:49:42.334Z,71.00
2019-03-30T23:52:11.450Z,71.10
2019-03-30T23:54:40.663Z,71.20
2019-03-30T23:57:09.854Z,71.30
2019-03-30T23:59:38.944Z,71.60
